sensor_id;sensor_type;location;lat;lon;timestamp;P1;durP1;ratioP1;P2;durP2;ratioP2
21661;SDS011;10992;48.170;8.596;2022-07-29T00:02:25;10.23;;;9.32;;
21661;SDS011;10992;48.170;8.596;2022-07-29T00:04:53;9.90;;;8.90;;
21661;SDS011;10992;48.170;8.596;2022-07-29T00:07:20;13.38;;;8.95;;
21661;SDS011;10992;48.170;8.596;2022-07-29T00:09:47;10.18;;;8.18;;
21661;SDS011;10992;48.170;8.596;2022-07-29T00:12:18;10.15;;;8.18;;
21661;SDS011;10992;48.170;8.596;2022-07-29T00:14:52;9.95;;;8.95;;
21661;SDS011;10992;48.170;8.596;2022-07-29T00:17:20;8.52;;;7.72;;
21661;SDS011;10992;48.170;8.596;2022-07-29T00:19:47;9.10;;;7.88;;
21661;SDS011;10992;48.170;8.596;2022-07-29T00:22:14;8.38;;;7.57;;
21661;SDS011;10992;48.170;8.596;2022-07-29T00:24:41;8.35;;;7.50;;
21661;SDS011;10992;48.170;8.596;2022-07-29T00:27:08;10.93;;;8.10;;
21661;SDS011;10992;48.170;8.596;2022-07-29T00:29:35;8.07;;;7.28;;
21661;SDS011;10992;48.170;8.596;2022-07-29T00:32:02;8.18;;;7.38;;
21661;SDS011;10992;48.170;8.596;2022-07-29T00:34:29;10.68;;;8.18;;
21661;SDS011;10992;48.170;8.596;2022-07-29T00:37:15;8.82;;;7.32;;
21661;SDS011;10992;48.170;8.596;2022-07-29T00:39:42;8.07;;;7.32;;
21661;SDS011;10992;48.170;8.596;2022-07-29T00:42:09;8.45;;;7.25;;
21661;SDS011;10992;48.170;8.596;2022-07-29T00:44:39;8.50;;;7.70;;
21661;SDS011;10992;48.170;8.596;2022-07-29T00:47:07;9.65;;;7.90;;
21661;SDS011;10992;48.170;8.596;2022-07-29T00:49:35;8.95;;;7.78;;
21661;SDS011;10992;48.170;8.596;2022-07-29T00:52:05;11.05;;;8.77;;
21661;SDS011;10992;48.170;8.596;2022-07-29T00:54:33;10.57;;;8.52;;
21661;SDS011;10992;48.170;8.596;2022-07-29T00:57:05;9.82;;;8.85;;
21661;SDS011;10992;48.170;8.596;2022-07-29T00:59:34;10.73;;;9.63;;
21661;SDS011;10992;48.170;8.596;2022-07-29T01:02:02;9.63;;;8.73;;
21661;SDS011;10992;48.170;8.596;2022-07-29T01:04:30;10.30;;;9.30;;
21661;SDS011;10992;48.170;8.596;2022-07-29T01:06:58;9.98;;;8.82;;
21661;SDS011;10992;48.170;8.596;2022-07-29T01:09:26;11.00;;;9.90;;
21661;SDS011;10992;48.170;8.596;2022-07-29T01:12:10;14.73;;;9.35;;
21661;SDS011;10992;48.170;8.596;2022-07-29T01:14:41;10.57;;;9.63;;
21661;SDS011;10992;48.170;8.596;2022-07-29T01:17:10;15.07;;;10.05;;
21661;SDS011;10992;48.170;8.596;2022-07-29T01:19:56;11.07;;;9.98;;
21661;SDS011;10992;48.170;8.596;2022-07-29T01:34:27;13.00;;;11.15;;
21661;SDS011;10992;48.170;8.596;2022-07-29T01:37:26;18.33;;;12.25;;
21661;SDS011;10992;48.170;8.596;2022-07-29T01:40:11;13.00;;;11.77;;
21661;SDS011;10992;48.170;8.596;2022-07-29T01:42:45;13.18;;;11.82;;
21661;SDS011;10992;48.170;8.596;2022-07-29T01:45:29;13.13;;;11.65;;
21661;SDS011;10992;48.170;8.596;2022-07-29T01:48:23;14.20;;;12.52;;
21661;SDS011;10992;48.170;8.596;2022-07-29T01:50:58;14.75;;;12.10;;
21661;SDS011;10992;48.170;8.596;2022-07-29T01:53:34;15.13;;;12.60;;
21661;SDS011;10992;48.170;8.596;2022-07-29T01:56:04;14.85;;;13.25;;
21661;SDS011;10992;48.170;8.596;2022-07-29T01:58:35;14.75;;;12.77;;
21661;SDS011;10992;48.170;8.596;2022-07-29T02:01:05;15.23;;;12.88;;
21661;SDS011;10992;48.170;8.596;2022-07-29T02:03:34;15.93;;;13.15;;
21661;SDS011;10992;48.170;8.596;2022-07-29T02:06:04;13.50;;;12.20;;
21661;SDS011;10992;48.170;8.596;2022-07-29T02:08:33;14.25;;;12.85;;
21661;SDS011;10992;48.170;8.596;2022-07-29T02:11:02;13.93;;;12.57;;
21661;SDS011;10992;48.170;8.596;2022-07-29T02:13:30;14.60;;;12.45;;
21661;SDS011;10992;48.170;8.596;2022-07-29T02:15:59;13.75;;;12.30;;
21661;SDS011;10992;48.170;8.596;2022-07-29T02:18:28;14.88;;;13.25;;
21661;SDS011;10992;48.170;8.596;2022-07-29T02:20:58;14.02;;;12.60;;
21661;SDS011;10992;48.170;8.596;2022-07-29T02:23:26;15.52;;;13.45;;
21661;SDS011;10992;48.170;8.596;2022-07-29T02:25:57;13.48;;;12.07;;
21661;SDS011;10992;48.170;8.596;2022-07-29T02:28:25;14.00;;;12.70;;
21661;SDS011;10992;48.170;8.596;2022-07-29T02:30:55;14.80;;;13.18;;
21661;SDS011;10992;48.170;8.596;2022-07-29T02:33:25;14.75;;;13.05;;
21661;SDS011;10992;48.170;8.596;2022-07-29T02:35:53;16.83;;;14.02;;
21661;SDS011;10992;48.170;8.596;2022-07-29T02:38:22;16.48;;;14.60;;
21661;SDS011;10992;48.170;8.596;2022-07-29T02:44:10;16.05;;;13.65;;
21661;SDS011;10992;48.170;8.596;2022-07-29T02:46:49;16.40;;;14.80;;
21661;SDS011;10992;48.170;8.596;2022-07-29T02:49:36;19.70;;;15.80;;
21661;SDS011;10992;48.170;8.596;2022-07-29T02:52:12;15.18;;;13.45;;
21661;SDS011;10992;48.170;8.596;2022-07-29T02:54:46;17.98;;;13.73;;
21661;SDS011;10992;48.170;8.596;2022-07-29T02:57:34;17.42;;;14.07;;
21661;SDS011;10992;48.170;8.596;2022-07-29T03:00:21;17.13;;;14.95;;
21661;SDS011;10992;48.170;8.596;2022-07-29T03:02:53;15.07;;;13.57;;
21661;SDS011;10992;48.170;8.596;2022-07-29T03:05:23;19.08;;;15.07;;
21661;SDS011;10992;48.170;8.596;2022-07-29T03:08:00;15.98;;;14.43;;
21661;SDS011;10992;48.170;8.596;2022-07-29T03:10:30;15.45;;;13.85;;
21661;SDS011;10992;48.170;8.596;2022-07-29T03:12:57;16.80;;;15.10;;
21661;SDS011;10992;48.170;8.596;2022-07-29T03:15:26;15.48;;;14.02;;
21661;SDS011;10992;48.170;8.596;2022-07-29T03:17:53;16.17;;;13.98;;
21661;SDS011;10992;48.170;8.596;2022-07-29T03:20:23;18.23;;;14.85;;
21661;SDS011;10992;48.170;8.596;2022-07-29T03:22:50;18.45;;;14.98;;
21661;SDS011;10992;48.170;8.596;2022-07-29T03:25:18;22.58;;;16.55;;
21661;SDS011;10992;48.170;8.596;2022-07-29T03:27:47;17.98;;;15.40;;
21661;SDS011;10992;48.170;8.596;2022-07-29T03:30:14;21.73;;;16.05;;
21661;SDS011;10992;48.170;8.596;2022-07-29T03:32:47;19.48;;;17.35;;
21661;SDS011;10992;48.170;8.596;2022-07-29T03:35:17;17.40;;;15.70;;
21661;SDS011;10992;48.170;8.596;2022-07-29T03:37:44;19.60;;;17.10;;
21661;SDS011;10992;48.170;8.596;2022-07-29T03:40:13;19.35;;;16.75;;
21661;SDS011;10992;48.170;8.596;2022-07-29T03:42:44;19.40;;;17.60;;
21661;SDS011;10992;48.170;8.596;2022-07-29T03:45:13;19.80;;;17.27;;
21661;SDS011;10992;48.170;8.596;2022-07-29T03:47:47;18.50;;;16.60;;
21661;SDS011;10992;48.170;8.596;2022-07-29T03:50:22;22.38;;;17.88;;
21661;SDS011;10992;48.170;8.596;2022-07-29T03:52:49;20.65;;;18.40;;
21661;SDS011;10992;48.170;8.596;2022-07-29T03:55:16;21.45;;;18.40;;
21661;SDS011;10992;48.170;8.596;2022-07-29T03:57:44;19.15;;;17.13;;
21661;SDS011;10992;48.170;8.596;2022-07-29T04:00:13;20.13;;;18.13;;
21661;SDS011;10992;48.170;8.596;2022-07-29T04:02:42;19.45;;;17.35;;
21661;SDS011;10992;48.170;8.596;2022-07-29T04:05:15;20.10;;;18.10;;
21661;SDS011;10992;48.170;8.596;2022-07-29T04:07:43;21.02;;;18.92;;
21661;SDS011;10992;48.170;8.596;2022-07-29T04:10:14;19.63;;;17.45;;
21661;SDS011;10992;48.170;8.596;2022-07-29T04:12:42;18.75;;;16.73;;
21661;SDS011;10992;48.170;8.596;2022-07-29T04:15:10;17.15;;;15.45;;
21661;SDS011;10992;48.170;8.596;2022-07-29T04:17:37;18.45;;;16.65;;
21661;SDS011;10992;48.170;8.596;2022-07-29T04:20:04;17.80;;;16.00;;
21661;SDS011;10992;48.170;8.596;2022-07-29T04:22:31;16.63;;;14.82;;
21661;SDS011;10992;48.170;8.596;2022-07-29T04:24:58;16.02;;;14.38;;
21661;SDS011;10992;48.170;8.596;2022-07-29T04:27:29;20.75;;;15.40;;
21661;SDS011;10992;48.170;8.596;2022-07-29T04:29:56;16.95;;;13.68;;
21661;SDS011;10992;48.170;8.596;2022-07-29T04:32:23;15.60;;;13.35;;
21661;SDS011;10992;48.170;8.596;2022-07-29T04:34:51;14.68;;;13.18;;
21661;SDS011;10992;48.170;8.596;2022-07-29T04:37:18;16.63;;;14.25;;
21661;SDS011;10992;48.170;8.596;2022-07-29T04:39:45;16.50;;;13.57;;
21661;SDS011;10992;48.170;8.596;2022-07-29T04:42:12;14.25;;;12.75;;
21661;SDS011;10992;48.170;8.596;2022-07-29T04:44:39;14.55;;;13.13;;
21661;SDS011;10992;48.170;8.596;2022-07-29T04:47:08;16.77;;;14.73;;
21661;SDS011;10992;48.170;8.596;2022-07-29T04:49:39;14.45;;;13.05;;
21661;SDS011;10992;48.170;8.596;2022-07-29T04:52:09;13.73;;;12.35;;
21661;SDS011;10992;48.170;8.596;2022-07-29T04:54:35;14.40;;;12.90;;
21661;SDS011;10992;48.170;8.596;2022-07-29T04:57:02;16.00;;;12.15;;
21661;SDS011;10992;48.170;8.596;2022-07-29T04:59:29;12.80;;;11.50;;
21661;SDS011;10992;48.170;8.596;2022-07-29T05:01:56;12.13;;;11.02;;
21661;SDS011;10992;48.170;8.596;2022-07-29T05:04:23;11.85;;;10.65;;
21661;SDS011;10992;48.170;8.596;2022-07-29T05:06:50;10.73;;;9.73;;
21661;SDS011;10992;48.170;8.596;2022-07-29T05:09:17;10.77;;;8.98;;
21661;SDS011;10992;48.170;8.596;2022-07-29T05:11:44;9.20;;;8.30;;
21661;SDS011;10992;48.170;8.596;2022-07-29T05:14:11;10.13;;;8.80;;
21661;SDS011;10992;48.170;8.596;2022-07-29T05:16:38;8.30;;;7.50;;
21661;SDS011;10992;48.170;8.596;2022-07-29T05:19:08;8.07;;;7.38;;
21661;SDS011;10992;48.170;8.596;2022-07-29T05:21:39;9.30;;;7.47;;
21661;SDS011;10992;48.170;8.596;2022-07-29T05:24:07;10.50;;;8.20;;
21661;SDS011;10992;48.170;8.596;2022-07-29T05:26:34;9.02;;;7.97;;
21661;SDS011;10992;48.170;8.596;2022-07-29T05:29:01;10.13;;;8.20;;
21661;SDS011;10992;48.170;8.596;2022-07-29T05:31:27;8.35;;;7.40;;
21661;SDS011;10992;48.170;8.596;2022-07-29T05:33:54;9.25;;;7.95;;
21661;SDS011;10992;48.170;8.596;2022-07-29T05:36:22;8.38;;;7.57;;
21661;SDS011;10992;48.170;8.596;2022-07-29T05:38:48;8.32;;;6.65;;
21661;SDS011;10992;48.170;8.596;2022-07-29T05:41:17;7.00;;;6.30;;
21661;SDS011;10992;48.170;8.596;2022-07-29T05:43:44;8.00;;;6.10;;
21661;SDS011;10992;48.170;8.596;2022-07-29T05:46:11;6.93;;;5.88;;
21661;SDS011;10992;48.170;8.596;2022-07-29T05:48:38;7.65;;;5.65;;
21661;SDS011;10992;48.170;8.596;2022-07-29T05:51:05;9.07;;;5.80;;
21661;SDS011;10992;48.170;8.596;2022-07-29T05:53:32;6.00;;;5.15;;
21661;SDS011;10992;48.170;8.596;2022-07-29T05:56:02;5.50;;;4.95;;
21661;SDS011;10992;48.170;8.596;2022-07-29T05:58:31;7.97;;;6.05;;
21661;SDS011;10992;48.170;8.596;2022-07-29T06:00:57;7.47;;;6.18;;
21661;SDS011;10992;48.170;8.596;2022-07-29T06:03:27;7.18;;;5.80;;
21661;SDS011;10992;48.170;8.596;2022-07-29T06:05:54;7.22;;;5.53;;
21661;SDS011;10992;48.170;8.596;2022-07-29T06:08:21;8.05;;;6.22;;
21661;SDS011;10992;48.170;8.596;2022-07-29T06:10:48;7.90;;;6.18;;
21661;SDS011;10992;48.170;8.596;2022-07-29T06:13:15;8.98;;;6.07;;
21661;SDS011;10992;48.170;8.596;2022-07-29T06:15:42;6.43;;;5.68;;
21661;SDS011;10992;48.170;8.596;2022-07-29T06:18:10;8.95;;;6.10;;
21661;SDS011;10992;48.170;8.596;2022-07-29T06:20:39;6.88;;;6.18;;
21661;SDS011;10992;48.170;8.596;2022-07-29T06:23:06;7.78;;;6.13;;
21661;SDS011;10992;48.170;8.596;2022-07-29T06:25:33;6.93;;;6.10;;
21661;SDS011;10992;48.170;8.596;2022-07-29T06:28:02;8.45;;;5.90;;
21661;SDS011;10992;48.170;8.596;2022-07-29T06:30:29;6.70;;;5.95;;
21661;SDS011;10992;48.170;8.596;2022-07-29T06:32:56;6.97;;;5.15;;
21661;SDS011;10992;48.170;8.596;2022-07-29T06:35:23;8.05;;;5.13;;
21661;SDS011;10992;48.170;8.596;2022-07-29T06:38:07;7.32;;;5.45;;
21661;SDS011;10992;48.170;8.596;2022-07-29T06:40:55;6.53;;;5.20;;
21661;SDS011;10992;48.170;8.596;2022-07-29T06:43:37;6.00;;;4.35;;
21661;SDS011;10992;48.170;8.596;2022-07-29T06:46:18;7.07;;;5.20;;
21661;SDS011;10992;48.170;8.596;2022-07-29T06:48:46;6.40;;;5.55;;
21661;SDS011;10992;48.170;8.596;2022-07-29T06:51:14;8.73;;;5.40;;
21661;SDS011;10992;48.170;8.596;2022-07-29T06:53:41;6.22;;;4.90;;
21661;SDS011;10992;48.170;8.596;2022-07-29T06:56:28;7.18;;;5.00;;
21661;SDS011;10992;48.170;8.596;2022-07-29T06:59:04;5.63;;;5.05;;
21661;SDS011;10992;48.170;8.596;2022-07-29T07:01:33;6.07;;;4.93;;
21661;SDS011;10992;48.170;8.596;2022-07-29T07:04:00;4.80;;;3.97;;
21661;SDS011;10992;48.170;8.596;2022-07-29T07:06:27;8.82;;;4.47;;
21661;SDS011;10992;48.170;8.596;2022-07-29T07:08:55;5.57;;;3.75;;
21661;SDS011;10992;48.170;8.596;2022-07-29T07:11:21;4.32;;;3.92;;
21661;SDS011;10992;48.170;8.596;2022-07-29T07:13:48;5.22;;;3.58;;
21661;SDS011;10992;48.170;8.596;2022-07-29T07:16:16;5.03;;;3.72;;
21661;SDS011;10992;48.170;8.596;2022-07-29T07:18:42;9.35;;;3.92;;
21661;SDS011;10992;48.170;8.596;2022-07-29T07:21:11;5.72;;;3.50;;
21661;SDS011;10992;48.170;8.596;2022-07-29T07:23:45;4.72;;;3.95;;
21661;SDS011;10992;48.170;8.596;2022-07-29T07:26:12;6.78;;;3.63;;
21661;SDS011;10992;48.170;8.596;2022-07-29T07:28:39;5.00;;;3.80;;
21661;SDS011;10992;48.170;8.596;2022-07-29T07:31:06;4.03;;;3.42;;
21661;SDS011;10992;48.170;8.596;2022-07-29T07:33:33;7.13;;;4.45;;
21661;SDS011;10992;48.170;8.596;2022-07-29T07:36:00;4.80;;;4.10;;
21661;SDS011;10992;48.170;8.596;2022-07-29T07:38:26;5.40;;;4.05;;
21661;SDS011;10992;48.170;8.596;2022-07-29T07:40:53;7.00;;;4.35;;
21661;SDS011;10992;48.170;8.596;2022-07-29T07:43:20;4.80;;;4.28;;
21661;SDS011;10992;48.170;8.596;2022-07-29T07:45:48;5.45;;;4.40;;
21661;SDS011;10992;48.170;8.596;2022-07-29T07:48:16;5.40;;;4.45;;
21661;SDS011;10992;48.170;8.596;2022-07-29T07:50:42;5.30;;;4.03;;
21661;SDS011;10992;48.170;8.596;2022-07-29T07:53:10;4.32;;;3.47;;
21661;SDS011;10992;48.170;8.596;2022-07-29T07:55:41;4.22;;;3.42;;
21661;SDS011;10992;48.170;8.596;2022-07-29T07:58:28;5.82;;;3.28;;
21661;SDS011;10992;48.170;8.596;2022-07-29T08:00:55;4.03;;;3.17;;
21661;SDS011;10992;48.170;8.596;2022-07-29T08:03:22;5.55;;;3.22;;
21661;SDS011;10992;48.170;8.596;2022-07-29T08:05:49;4.55;;;2.92;;
21661;SDS011;10992;48.170;8.596;2022-07-29T08:08:18;6.05;;;3.22;;
21661;SDS011;10992;48.170;8.596;2022-07-29T08:10:45;6.38;;;3.53;;
21661;SDS011;10992;48.170;8.596;2022-07-29T08:13:30;4.45;;;3.47;;
21661;SDS011;10992;48.170;8.596;2022-07-29T08:15:58;4.68;;;3.30;;
21661;SDS011;10992;48.170;8.596;2022-07-29T08:18:37;5.13;;;3.40;;
21661;SDS011;10992;48.170;8.596;2022-07-29T08:21:05;4.78;;;3.95;;
21661;SDS011;10992;48.170;8.596;2022-07-29T08:23:32;8.38;;;3.92;;
21661;SDS011;10992;48.170;8.596;2022-07-29T08:26:14;9.85;;;3.72;;
21661;SDS011;10992;48.170;8.596;2022-07-29T08:28:42;4.30;;;3.58;;
21661;SDS011;10992;48.170;8.596;2022-07-29T08:31:15;7.22;;;3.38;;
21661;SDS011;10992;48.170;8.596;2022-07-29T08:33:43;5.13;;;2.92;;
21661;SDS011;10992;48.170;8.596;2022-07-29T08:36:11;4.85;;;3.58;;
21661;SDS011;10992;48.170;8.596;2022-07-29T08:38:39;6.75;;;4.30;;
21661;SDS011;10992;48.170;8.596;2022-07-29T08:41:06;6.07;;;4.75;;
21661;SDS011;10992;48.170;8.596;2022-07-29T08:43:33;4.10;;;3.65;;
21661;SDS011;10992;48.170;8.596;2022-07-29T08:46:03;11.88;;;4.22;;
21661;SDS011;10992;48.170;8.596;2022-07-29T08:48:30;3.72;;;3.42;;
21661;SDS011;10992;48.170;8.596;2022-07-29T08:50:58;7.07;;;4.47;;
21661;SDS011;10992;48.170;8.596;2022-07-29T08:53:28;4.95;;;4.00;;
21661;SDS011;10992;48.170;8.596;2022-07-29T08:55:57;6.70;;;3.78;;
21661;SDS011;10992;48.170;8.596;2022-07-29T08:58:26;4.97;;;4.10;;
21661;SDS011;10992;48.170;8.596;2022-07-29T09:01:02;8.10;;;4.22;;
21661;SDS011;10992;48.170;8.596;2022-07-29T09:03:33;8.00;;;3.80;;
21661;SDS011;10992;48.170;8.596;2022-07-29T09:06:03;4.68;;;3.55;;
21661;SDS011;10992;48.170;8.596;2022-07-29T09:08:31;5.60;;;3.92;;
21661;SDS011;10992;48.170;8.596;2022-07-29T09:11:02;5.35;;;3.83;;
21661;SDS011;10992;48.170;8.596;2022-07-29T09:13:30;7.07;;;3.88;;
21661;SDS011;10992;48.170;8.596;2022-07-29T09:15:57;4.93;;;3.83;;
21661;SDS011;10992;48.170;8.596;2022-07-29T09:18:34;5.50;;;3.25;;
21661;SDS011;10992;48.170;8.596;2022-07-29T09:21:13;6.18;;;3.90;;
21661;SDS011;10992;48.170;8.596;2022-07-29T09:24:01;3.75;;;3.40;;
21661;SDS011;10992;48.170;8.596;2022-07-29T09:26:34;4.15;;;3.58;;
21661;SDS011;10992;48.170;8.596;2022-07-29T09:31:40;4.95;;;3.13;;
21661;SDS011;10992;48.170;8.596;2022-07-29T09:34:13;4.88;;;3.20;;
21661;SDS011;10992;48.170;8.596;2022-07-29T09:36:45;4.97;;;3.15;;
21661;SDS011;10992;48.170;8.596;2022-07-29T09:39:14;6.43;;;3.90;;
21661;SDS011;10992;48.170;8.596;2022-07-29T09:41:50;4.82;;;3.78;;
21661;SDS011;10992;48.170;8.596;2022-07-29T09:44:21;5.75;;;3.80;;
21661;SDS011;10992;48.170;8.596;2022-07-29T09:46:56;5.95;;;3.65;;
21661;SDS011;10992;48.170;8.596;2022-07-29T09:49:33;5.85;;;3.35;;
21661;SDS011;10992;48.170;8.596;2022-07-29T09:52:20;5.47;;;3.75;;
21661;SDS011;10992;48.170;8.596;2022-07-29T09:54:48;5.82;;;3.50;;
21661;SDS011;10992;48.170;8.596;2022-07-29T09:57:28;6.45;;;3.55;;
21661;SDS011;10992;48.170;8.596;2022-07-29T10:02:28;5.88;;;3.53;;
21661;SDS011;10992;48.170;8.596;2022-07-29T10:04:58;6.10;;;4.20;;
21661;SDS011;10992;48.170;8.596;2022-07-29T10:07:26;5.10;;;3.90;;
21661;SDS011;10992;48.170;8.596;2022-07-29T10:10:08;4.57;;;3.90;;
21661;SDS011;10992;48.170;8.596;2022-07-29T10:12:45;5.50;;;4.43;;
21661;SDS011;10992;48.170;8.596;2022-07-29T10:15:15;7.47;;;4.53;;
21661;SDS011;10992;48.170;8.596;2022-07-29T10:17:42;4.72;;;3.92;;
21661;SDS011;10992;48.170;8.596;2022-07-29T10:20:10;4.90;;;4.40;;
21661;SDS011;10992;48.170;8.596;2022-07-29T10:22:41;4.38;;;3.95;;
21661;SDS011;10992;48.170;8.596;2022-07-29T10:25:19;8.23;;;5.32;;
21661;SDS011;10992;48.170;8.596;2022-07-29T10:27:47;6.38;;;4.10;;
21661;SDS011;10992;48.170;8.596;2022-07-29T10:30:17;4.88;;;4.18;;
21661;SDS011;10992;48.170;8.596;2022-07-29T10:33:05;5.47;;;4.10;;
21661;SDS011;10992;48.170;8.596;2022-07-29T10:38:21;4.60;;;3.53;;
21661;SDS011;10992;48.170;8.596;2022-07-29T10:44:19;5.60;;;3.90;;
21661;SDS011;10992;48.170;8.596;2022-07-29T10:46:49;5.78;;;3.45;;
21661;SDS011;10992;48.170;8.596;2022-07-29T10:49:24;4.03;;;3.10;;
21661;SDS011;10992;48.170;8.596;2022-07-29T10:54:39;4.90;;;3.05;;
21661;SDS011;10992;48.170;8.596;2022-07-29T11:02:43;3.83;;;3.33;;
21661;SDS011;10992;48.170;8.596;2022-07-29T11:05:16;4.72;;;2.83;;
21661;SDS011;10992;48.170;8.596;2022-07-29T11:10:46;4.55;;;2.95;;
21661;SDS011;10992;48.170;8.596;2022-07-29T11:16:11;8.65;;;2.65;;
21661;SDS011;10992;48.170;8.596;2022-07-29T11:21:37;3.05;;;2.20;;
21661;SDS011;10992;48.170;8.596;2022-07-29T11:24:22;6.13;;;2.45;;
21661;SDS011;10992;48.170;8.596;2022-07-29T11:29:49;4.07;;;2.42;;
21661;SDS011;10992;48.170;8.596;2022-07-29T11:32:19;4.43;;;2.55;;
21661;SDS011;10992;48.170;8.596;2022-07-29T11:37:43;4.35;;;2.17;;
21661;SDS011;10992;48.170;8.596;2022-07-29T11:40:21;4.05;;;2.60;;
21661;SDS011;10992;48.170;8.596;2022-07-29T11:42:48;11.25;;;2.53;;
21661;SDS011;10992;48.170;8.596;2022-07-29T11:45:18;4.43;;;2.10;;
21661;SDS011;10992;48.170;8.596;2022-07-29T11:48:06;3.30;;;2.00;;
21661;SDS011;10992;48.170;8.596;2022-07-29T11:50:56;4.18;;;2.50;;
21661;SDS011;10992;48.170;8.596;2022-07-29T11:53:24;5.82;;;2.20;;
21661;SDS011;10992;48.170;8.596;2022-07-29T11:55:54;3.63;;;2.20;;
21661;SDS011;10992;48.170;8.596;2022-07-29T11:58:25;3.45;;;2.20;;
21661;SDS011;10992;48.170;8.596;2022-07-29T12:00:56;4.85;;;2.40;;
21661;SDS011;10992;48.170;8.596;2022-07-29T12:03:44;4.80;;;2.50;;
21661;SDS011;10992;48.170;8.596;2022-07-29T12:06:14;3.28;;;2.80;;
21661;SDS011;10992;48.170;8.596;2022-07-29T12:09:07;5.38;;;2.47;;
21661;SDS011;10992;48.170;8.596;2022-07-29T12:11:40;4.18;;;2.30;;
21661;SDS011;10992;48.170;8.596;2022-07-29T12:14:24;4.00;;;2.75;;
21661;SDS011;10992;48.170;8.596;2022-07-29T12:16:52;5.75;;;2.58;;
21661;SDS011;10992;48.170;8.596;2022-07-29T12:19:20;5.47;;;2.45;;
21661;SDS011;10992;48.170;8.596;2022-07-29T12:21:49;4.47;;;2.38;;
21661;SDS011;10992;48.170;8.596;2022-07-29T12:24:22;6.93;;;2.78;;
21661;SDS011;10992;48.170;8.596;2022-07-29T12:26:56;4.20;;;2.53;;
21661;SDS011;10992;48.170;8.596;2022-07-29T12:29:25;4.40;;;2.40;;
21661;SDS011;10992;48.170;8.596;2022-07-29T12:32:00;4.47;;;2.50;;
21661;SDS011;10992;48.170;8.596;2022-07-29T12:34:29;5.80;;;2.63;;
21661;SDS011;10992;48.170;8.596;2022-07-29T12:36:57;4.35;;;2.85;;
21661;SDS011;10992;48.170;8.596;2022-07-29T12:39:24;4.82;;;2.80;;
21661;SDS011;10992;48.170;8.596;2022-07-29T12:41:54;3.70;;;2.45;;
21661;SDS011;10992;48.170;8.596;2022-07-29T12:44:49;5.40;;;2.65;;
21661;SDS011;10992;48.170;8.596;2022-07-29T12:47:17;3.45;;;2.63;;
21661;SDS011;10992;48.170;8.596;2022-07-29T12:49:45;4.50;;;2.38;;
21661;SDS011;10992;48.170;8.596;2022-07-29T12:52:32;7.70;;;2.50;;
21661;SDS011;10992;48.170;8.596;2022-07-29T12:55:00;3.38;;;2.60;;
21661;SDS011;10992;48.170;8.596;2022-07-29T12:57:28;4.05;;;2.38;;
21661;SDS011;10992;48.170;8.596;2022-07-29T13:00:08;5.88;;;2.03;;
21661;SDS011;10992;48.170;8.596;2022-07-29T13:02:38;5.47;;;2.22;;
21661;SDS011;10992;48.170;8.596;2022-07-29T13:05:07;2.70;;;1.98;;
21661;SDS011;10992;48.170;8.596;2022-07-29T13:07:35;4.15;;;2.10;;
21661;SDS011;10992;48.170;8.596;2022-07-29T13:10:22;4.75;;;2.30;;
21661;SDS011;10992;48.170;8.596;2022-07-29T13:13:03;3.97;;;2.15;;
21661;SDS011;10992;48.170;8.596;2022-07-29T13:15:41;6.38;;;2.83;;
21661;SDS011;10992;48.170;8.596;2022-07-29T13:18:29;4.90;;;2.60;;
21661;SDS011;10992;48.170;8.596;2022-07-29T13:21:07;6.85;;;2.60;;
21661;SDS011;10992;48.170;8.596;2022-07-29T13:23:37;3.30;;;2.35;;
21661;SDS011;10992;48.170;8.596;2022-07-29T13:26:05;4.85;;;2.67;;
21661;SDS011;10992;48.170;8.596;2022-07-29T13:28:35;4.63;;;2.58;;
21661;SDS011;10992;48.170;8.596;2022-07-29T13:31:02;4.05;;;2.20;;
21661;SDS011;10992;48.170;8.596;2022-07-29T13:33:29;4.47;;;2.28;;
21661;SDS011;10992;48.170;8.596;2022-07-29T13:35:57;7.72;;;2.50;;
21661;SDS011;10992;48.170;8.596;2022-07-29T13:38:24;4.85;;;2.30;;
21661;SDS011;10992;48.170;8.596;2022-07-29T13:40:56;5.68;;;2.42;;
21661;SDS011;10992;48.170;8.596;2022-07-29T13:43:24;5.07;;;2.65;;
21661;SDS011;10992;48.170;8.596;2022-07-29T13:45:50;7.93;;;2.53;;
21661;SDS011;10992;48.170;8.596;2022-07-29T13:48:18;5.97;;;2.58;;
21661;SDS011;10992;48.170;8.596;2022-07-29T13:50:45;4.38;;;2.20;;
21661;SDS011;10992;48.170;8.596;2022-07-29T13:53:12;2.72;;;2.30;;
21661;SDS011;10992;48.170;8.596;2022-07-29T13:55:43;3.58;;;2.65;;
21661;SDS011;10992;48.170;8.596;2022-07-29T13:58:11;4.43;;;2.13;;
21661;SDS011;10992;48.170;8.596;2022-07-29T14:00:37;5.05;;;2.47;;
21661;SDS011;10992;48.170;8.596;2022-07-29T14:03:05;4.13;;;2.60;;
21661;SDS011;10992;48.170;8.596;2022-07-29T14:05:32;5.97;;;3.03;;
21661;SDS011;10992;48.170;8.596;2022-07-29T14:07:59;6.15;;;3.63;;
21661;SDS011;10992;48.170;8.596;2022-07-29T14:10:26;3.95;;;2.60;;
21661;SDS011;10992;48.170;8.596;2022-07-29T14:12:53;5.97;;;2.85;;
21661;SDS011;10992;48.170;8.596;2022-07-29T14:15:20;3.97;;;2.53;;
21661;SDS011;10992;48.170;8.596;2022-07-29T14:17:47;4.68;;;2.40;;
21661;SDS011;10992;48.170;8.596;2022-07-29T14:20:14;4.82;;;2.08;;
21661;SDS011;10992;48.170;8.596;2022-07-29T14:22:42;4.55;;;1.85;;
21661;SDS011;10992;48.170;8.596;2022-07-29T14:25:10;3.28;;;2.45;;
21661;SDS011;10992;48.170;8.596;2022-07-29T14:27:40;2.97;;;2.10;;
21661;SDS011;10992;48.170;8.596;2022-07-29T14:30:08;3.17;;;2.10;;
21661;SDS011;10992;48.170;8.596;2022-07-29T14:32:36;4.65;;;2.60;;
21661;SDS011;10992;48.170;8.596;2022-07-29T14:35:03;4.20;;;2.42;;
21661;SDS011;10992;48.170;8.596;2022-07-29T14:37:30;6.05;;;2.67;;
21661;SDS011;10992;48.170;8.596;2022-07-29T14:40:06;3.05;;;2.20;;
21661;SDS011;10992;48.170;8.596;2022-07-29T14:42:34;3.97;;;2.28;;
21661;SDS011;10992;48.170;8.596;2022-07-29T14:45:02;6.55;;;2.75;;
21661;SDS011;10992;48.170;8.596;2022-07-29T14:47:31;6.43;;;2.58;;
21661;SDS011;10992;48.170;8.596;2022-07-29T14:49:57;2.83;;;2.20;;
21661;SDS011;10992;48.170;8.596;2022-07-29T14:52:24;5.38;;;2.15;;
21661;SDS011;10992;48.170;8.596;2022-07-29T14:54:51;4.65;;;2.30;;
21661;SDS011;10992;48.170;8.596;2022-07-29T14:57:18;4.22;;;2.35;;
21661;SDS011;10992;48.170;8.596;2022-07-29T14:59:45;3.90;;;2.53;;
21661;SDS011;10992;48.170;8.596;2022-07-29T15:02:13;5.30;;;2.38;;
21661;SDS011;10992;48.170;8.596;2022-07-29T15:04:40;5.38;;;2.53;;
21661;SDS011;10992;48.170;8.596;2022-07-29T15:07:07;4.55;;;2.53;;
21661;SDS011;10992;48.170;8.596;2022-07-29T15:09:34;3.97;;;2.60;;
21661;SDS011;10992;48.170;8.596;2022-07-29T15:12:12;5.18;;;2.45;;
21661;SDS011;10992;48.170;8.596;2022-07-29T15:14:39;2.97;;;2.20;;
21661;SDS011;10992;48.170;8.596;2022-07-29T15:17:06;7.43;;;2.40;;
21661;SDS011;10992;48.170;8.596;2022-07-29T15:19:34;2.33;;;2.13;;
21661;SDS011;10992;48.170;8.596;2022-07-29T15:22:01;6.72;;;2.38;;
21661;SDS011;10992;48.170;8.596;2022-07-29T15:24:33;2.42;;;2.10;;
21661;SDS011;10992;48.170;8.596;2022-07-29T15:27:01;3.58;;;2.03;;
21661;SDS011;10992;48.170;8.596;2022-07-29T15:29:28;3.97;;;2.60;;
21661;SDS011;10992;48.170;8.596;2022-07-29T15:31:56;3.63;;;2.40;;
21661;SDS011;10992;48.170;8.596;2022-07-29T15:34:23;4.50;;;2.50;;
21661;SDS011;10992;48.170;8.596;2022-07-29T15:36:51;4.75;;;2.67;;
21661;SDS011;10992;48.170;8.596;2022-07-29T15:39:19;3.17;;;2.10;;
21661;SDS011;10992;48.170;8.596;2022-07-29T15:41:47;3.50;;;2.53;;
21661;SDS011;10992;48.170;8.596;2022-07-29T15:44:14;3.63;;;2.40;;
21661;SDS011;10992;48.170;8.596;2022-07-29T15:46:41;2.63;;;2.30;;
21661;SDS011;10992;48.170;8.596;2022-07-29T15:52:14;3.05;;;2.40;;
21661;SDS011;10992;48.170;8.596;2022-07-29T15:54:52;4.72;;;2.50;;